sensor_id;sensor_type;location;lat;lon;timestamp;temperature;humidity
26745;DHT22;14342;50.960;13.880;2023-12-20T00:00:38;6.80;99.90
26745;DHT22;14342;50.960;13.880;2023-12-20T00:01:40;6.80;99.90
26745;DHT22;14342;50.960;13.880;2023-12-20T00:02:41;6.90;99.90
26745;DHT22;14342;50.960;13.880;2023-12-20T00:03:47;6.90;99.90
26745;DHT22;14342;50.960;13.880;2023-12-20T00:04:49;6.80;99.90
26745;DHT22;14342;50.960;13.880;2023-12-20T00:05:50;6.70;99.90
26745;DHT22;14342;50.960;13.880;2023-12-20T00:06:51;6.70;99.90
26745;DHT22;14342;50.960;13.880;2023-12-20T00:07:52;6.60;99.90
26745;DHT22;14342;50.960;13.880;2023-12-20T00:08:54;6.60;99.90
26745;DHT22;14342;50.960;13.880;2023-12-20T00:09:55;6.60;99.90
26745;DHT22;14342;50.960;13.880;2023-12-20T00:10:56;6.60;99.90
26745;DHT22;14342;50.960;13.880;2023-12-20T00:11:57;6.60;99.90
26745;DHT22;14342;50.960;13.880;2023-12-20T00:12:58;6.60;99.90
26745;DHT22;14342;50.960;13.880;2023-12-20T00:13:59;6.50;99.90
26745;DHT22;14342;50.960;13.880;2023-12-20T00:15:00;6.60;99.90
26745;DHT22;14342;50.960;13.880;2023-12-20T00:16:01;6.50;99.90
26745;DHT22;14342;50.960;13.880;2023-12-20T00:17:02;6.50;99.90
26745;DHT22;14342;50.960;13.880;2023-12-20T00:18:03;6.50;99.90
26745;DHT22;14342;50.960;13.880;2023-12-20T00:19:04;6.40;99.90
26745;DHT22;14342;50.960;13.880;2023-12-20T00:20:08;6.40;99.90
26745;DHT22;14342;50.960;13.880;2023-12-20T00:21:08;6.30;99.90
26745;DHT22;14342;50.960;13.880;2023-12-20T00:22:10;6.30;99.90
26745;DHT22;14342;50.960;13.880;2023-12-20T00:23:11;6.30;99.90
26745;DHT22;14342;50.960;13.880;2023-12-20T00:24:12;6.30;99.90
26745;DHT22;14342;50.960;13.880;2023-12-20T00:25:13;6.20;99.90
26745;DHT22;14342;50.960;13.880;2023-12-20T00:26:15;6.20;99.90
26745;DHT22;14342;50.960;13.880;2023-12-20T00:27:15;6.20;99.90
26745;DHT22;14342;50.960;13.880;2023-12-20T00:28:17;6.20;99.90
26745;DHT22;14342;50.960;13.880;2023-12-20T00:29:18;6.20;99.90
26745;DHT22;14342;50.960;13.880;2023-12-20T00:30:19;6.20;99.90
26745;DHT22;14342;50.960;13.880;2023-12-20T00:31:20;6.20;99.90
26745;DHT22;14342;50.960;13.880;2023-12-20T00:32:21;6.20;99.90
26745;DHT22;14342;50.960;13.880;2023-12-20T00:33:22;6.40;99.90
26745;DHT22;14342;50.960;13.880;2023-12-20T00:34:23;6.20;99.90
26745;DHT22;14342;50.960;13.880;2023-12-20T00:35:26;6.20;99.90
26745;DHT22;14342;50.960;13.880;2023-12-20T00:36:27;6.20;99.90
26745;DHT22;14342;50.960;13.880;2023-12-20T00:37:28;6.30;99.90
26745;DHT22;14342;50.960;13.880;2023-12-20T00:38:29;6.30;99.90
26745;DHT22;14342;50.960;13.880;2023-12-20T00:39:30;6.30;99.90
26745;DHT22;14342;50.960;13.880;2023-12-20T00:40:33;6.20;99.90
26745;DHT22;14342;50.960;13.880;2023-12-20T00:41:33;6.20;99.90
26745;DHT22;14342;50.960;13.880;2023-12-20T00:42:35;6.20;99.90
26745;DHT22;14342;50.960;13.880;2023-12-20T00:43:36;6.10;99.90
26745;DHT22;14342;50.960;13.880;2023-12-20T00:44:36;6.00;99.90
26745;DHT22;14342;50.960;13.880;2023-12-20T00:45:38;6.00;99.90
26745;DHT22;14342;50.960;13.880;2023-12-20T00:46:39;6.10;99.90
26745;DHT22;14342;50.960;13.880;2023-12-20T00:47:40;6.10;99.90
26745;DHT22;14342;50.960;13.880;2023-12-20T00:48:41;6.10;99.90
26745;DHT22;14342;50.960;13.880;2023-12-20T00:49:42;6.50;99.90
26745;DHT22;14342;50.960;13.880;2023-12-20T00:50:45;6.40;99.90
26745;DHT22;14342;50.960;13.880;2023-12-20T00:51:46;6.20;99.90
26745;DHT22;14342;50.960;13.880;2023-12-20T00:52:48;6.20;99.90
26745;DHT22;14342;50.960;13.880;2023-12-20T00:53:49;6.20;99.90
26745;DHT22;14342;50.960;13.880;2023-12-20T00:54:54;6.20;99.90
26745;DHT22;14342;50.960;13.880;2023-12-20T00:55:55;6.30;99.90
26745;DHT22;14342;50.960;13.880;2023-12-20T00:56:56;6.30;99.90
26745;DHT22;14342;50.960;13.880;2023-12-20T00:57:57;6.30;99.90
26745;DHT22;14342;50.960;13.880;2023-12-20T00:58:59;6.30;99.90
26745;DHT22;14342;50.960;13.880;2023-12-20T01:00:01;6.30;99.90
26745;DHT22;14342;50.960;13.880;2023-12-20T01:01:02;5.90;99.90
26745;DHT22;14342;50.960;13.880;2023-12-20T01:02:03;6.20;99.90
26745;DHT22;14342;50.960;13.880;2023-12-20T01:03:04;6.30;99.90
26745;DHT22;14342;50.960;13.880;2023-12-20T01:04:05;6.30;99.90
26745;DHT22;14342;50.960;13.880;2023-12-20T01:05:06;6.30;99.90
26745;DHT22;14342;50.960;13.880;2023-12-20T01:06:09;6.40;99.90
26745;DHT22;14342;50.960;13.880;2023-12-20T01:07:10;6.40;99.90
26745;DHT22;14342;50.960;13.880;2023-12-20T01:08:11;6.40;99.90
26745;DHT22;14342;50.960;13.880;2023-12-20T01:09:13;6.40;99.90
26745;DHT22;14342;50.960;13.880;2023-12-20T01:10:13;6.40;99.90
26745;DHT22;14342;50.960;13.880;2023-12-20T01:11:15;6.30;99.90
26745;DHT22;14342;50.960;13.880;2023-12-20T01:12:15;6.20;99.90
26745;DHT22;14342;50.960;13.880;2023-12-20T01:13:17;6.10;99.90
26745;DHT22;14342;50.960;13.880;2023-12-20T01:14:17;6.00;99.90
26745;DHT22;14342;50.960;13.880;2023-12-20T01:15:19;6.10;99.90
26745;DHT22;14342;50.960;13.880;2023-12-20T01:16:20;6.20;99.90
26745;DHT22;14342;50.960;13.880;2023-12-20T01:17:21;6.20;99.90
26745;DHT22;14342;50.960;13.880;2023-12-20T01:18:22;6.20;99.90
26745;DHT22;14342;50.960;13.880;2023-12-20T01:19:24;6.20;99.90
26745;DHT22;14342;50.960;13.880;2023-12-20T01:20:27;6.10;99.90
26745;DHT22;14342;50.960;13.880;2023-12-20T01:21:29;6.20;99.90
26745;DHT22;14342;50.960;13.880;2023-12-20T01:22:30;6.30;99.90
26745;DHT22;14342;50.960;13.880;2023-12-20T01:23:31;6.30;99.90
26745;DHT22;14342;50.960;13.880;2023-12-20T01:24:33;6.50;99.90
26745;DHT22;14342;50.960;13.880;2023-12-20T01:25:34;6.30;99.90
26745;DHT22;14342;50.960;13.880;2023-12-20T01:26:35;6.30;99.90
26745;DHT22;14342;50.960;13.880;2023-12-20T01:27:36;6.40;99.90
26745;DHT22;14342;50.960;13.880;2023-12-20T01:28:37;6.50;99.90
26745;DHT22;14342;50.960;13.880;2023-12-20T01:29:38;6.40;99.90
26745;DHT22;14342;50.960;13.880;2023-12-20T01:30:40;6.30;99.90
26745;DHT22;14342;50.960;13.880;2023-12-20T01:31:40;6.30;99.90
26745;DHT22;14342;50.960;13.880;2023-12-20T01:32:42;6.30;99.90
26745;DHT22;14342;50.960;13.880;2023-12-20T01:33:43;6.60;99.90
26745;DHT22;14342;50.960;13.880;2023-12-20T01:34:44;6.40;99.90
26745;DHT22;14342;50.960;13.880;2023-12-20T01:35:45;6.40;99.90
26745;DHT22;14342;50.960;13.880;2023-12-20T01:36:48;6.50;99.90
26745;DHT22;14342;50.960;13.880;2023-12-20T01:37:48;6.70;99.90
26745;DHT22;14342;50.960;13.880;2023-12-20T01:38:50;6.60;99.90
26745;DHT22;14342;50.960;13.880;2023-12-20T01:39:50;6.50;99.90
26745;DHT22;14342;50.960;13.880;2023-12-20T01:40:52;6.50;99.90
26745;DHT22;14342;50.960;13.880;2023-12-20T01:41:53;6.40;99.90
26745;DHT22;14342;50.960;13.880;2023-12-20T01:42:58;6.30;99.90
26745;DHT22;14342;50.960;13.880;2023-12-20T01:43:58;6.30;99.90
26745;DHT22;14342;50.960;13.880;2023-12-20T01:44:59;6.30;99.90
26745;DHT22;14342;50.960;13.880;2023-12-20T01:46:00;6.50;99.90
26745;DHT22;14342;50.960;13.880;2023-12-20T01:47:01;6.40;99.90
26745;DHT22;14342;50.960;13.880;2023-12-20T01:48:03;6.40;99.90
26745;DHT22;14342;50.960;13.880;2023-12-20T01:49:04;6.40;99.90
26745;DHT22;14342;50.960;13.880;2023-12-20T01:50:06;6.40;99.90
26745;DHT22;14342;50.960;13.880;2023-12-20T01:51:08;6.40;99.90
26745;DHT22;14342;50.960;13.880;2023-12-20T01:52:11;6.50;99.90
26745;DHT22;14342;50.960;13.880;2023-12-20T01:53:12;6.50;99.90
26745;DHT22;14342;50.960;13.880;2023-12-20T01:54:15;6.60;99.90
26745;DHT22;14342;50.960;13.880;2023-12-20T01:55:16;6.70;99.90
26745;DHT22;14342;50.960;13.880;2023-12-20T01:56:17;6.70;99.90
26745;DHT22;14342;50.960;13.880;2023-12-20T01:57:18;6.70;99.90
26745;DHT22;14342;50.960;13.880;2023-12-20T01:58:20;6.70;99.90
26745;DHT22;14342;50.960;13.880;2023-12-20T01:59:22;6.60;99.90
26745;DHT22;14342;50.960;13.880;2023-12-20T02:00:23;6.50;99.90
26745;DHT22;14342;50.960;13.880;2023-12-20T02:01:26;6.40;99.90
26745;DHT22;14342;50.960;13.880;2023-12-20T02:02:28;6.30;99.90
26745;DHT22;14342;50.960;13.880;2023-12-20T02:03:30;6.30;99.90
26745;DHT22;14342;50.960;13.880;2023-12-20T02:04:31;6.30;99.90
26745;DHT22;14342;50.960;13.880;2023-12-20T02:05:34;6.20;99.90
26745;DHT22;14342;50.960;13.880;2023-12-20T02:06:35;6.20;99.90
26745;DHT22;14342;50.960;13.880;2023-12-20T02:07:38;6.20;99.90
26745;DHT22;14342;50.960;13.880;2023-12-20T02:08:38;6.20;99.90
26745;DHT22;14342;50.960;13.880;2023-12-20T02:09:40;6.10;99.90
26745;DHT22;14342;50.960;13.880;2023-12-20T02:10:40;6.10;99.90
26745;DHT22;14342;50.960;13.880;2023-12-20T02:11:42;6.10;99.90
26745;DHT22;14342;50.960;13.880;2023-12-20T02:12:43;6.00;99.90
26745;DHT22;14342;50.960;13.880;2023-12-20T02:13:45;6.10;99.90
26745;DHT22;14342;50.960;13.880;2023-12-20T02:14:45;6.20;99.90
26745;DHT22;14342;50.960;13.880;2023-12-20T02:15:47;6.20;99.90
26745;DHT22;14342;50.960;13.880;2023-12-20T02:16:47;6.10;99.90
26745;DHT22;14342;50.960;13.880;2023-12-20T02:17:48;6.10;99.90
26745;DHT22;14342;50.960;13.880;2023-12-20T02:18:50;6.10;99.90
26745;DHT22;14342;50.960;13.880;2023-12-20T02:19:50;6.00;99.90
26745;DHT22;14342;50.960;13.880;2023-12-20T02:20:52;6.00;99.90
26745;DHT22;14342;50.960;13.880;2023-12-20T02:22:05;6.20;99.90
26745;DHT22;14342;50.960;13.880;2023-12-20T02:23:07;6.20;99.90
26745;DHT22;14342;50.960;13.880;2023-12-20T02:24:08;6.30;99.90
26745;DHT22;14342;50.960;13.880;2023-12-20T02:25:09;6.30;99.90
26745;DHT22;14342;50.960;13.880;2023-12-20T02:26:10;6.30;99.90
26745;DHT22;14342;50.960;13.880;2023-12-20T02:27:13;6.20;99.90
26745;DHT22;14342;50.960;13.880;2023-12-20T02:28:15;6.20;99.90
26745;DHT22;14342;50.960;13.880;2023-12-20T02:29:17;6.20;99.90
26745;DHT22;14342;50.960;13.880;2023-12-20T02:30:17;6.20;99.90
26745;DHT22;14342;50.960;13.880;2023-12-20T02:31:20;6.20;99.90
26745;DHT22;14342;50.960;13.880;2023-12-20T02:32:21;6.10;99.90
26745;DHT22;14342;50.960;13.880;2023-12-20T02:33:26;6.20;99.90
26745;DHT22;14342;50.960;13.880;2023-12-20T02:34:27;6.10;99.90
26745;DHT22;14342;50.960;13.880;2023-12-20T02:35:28;6.10;99.90
26745;DHT22;14342;50.960;13.880;2023-12-20T02:36:29;6.20;99.90
26745;DHT22;14342;50.960;13.880;2023-12-20T02:37:32;6.30;99.90
26745;DHT22;14342;50.960;13.880;2023-12-20T02:38:32;6.20;99.90
26745;DHT22;14342;50.960;13.880;2023-12-20T02:39:35;6.20;99.90
26745;DHT22;14342;50.960;13.880;2023-12-20T02:40:35;6.10;99.90
26745;DHT22;14342;50.960;13.880;2023-12-20T02:41:37;6.00;99.90
26745;DHT22;14342;50.960;13.880;2023-12-20T02:42:37;6.10;99.90
26745;DHT22;14342;50.960;13.880;2023-12-20T02:43:39;6.00;99.90
26745;DHT22;14342;50.960;13.880;2023-12-20T02:44:40;6.10;99.90
26745;DHT22;14342;50.960;13.880;2023-12-20T02:45:41;6.20;99.90
26745;DHT22;14342;50.960;13.880;2023-12-20T02:46:42;6.20;99.90
26745;DHT22;14342;50.960;13.880;2023-12-20T02:47:43;6.30;99.90
26745;DHT22;14342;50.960;13.880;2023-12-20T02:48:44;6.30;99.90
26745;DHT22;14342;50.960;13.880;2023-12-20T02:49:47;6.20;99.90
26745;DHT22;14342;50.960;13.880;2023-12-20T02:50:48;6.20;99.90
26745;DHT22;14342;50.960;13.880;2023-12-20T02:51:49;6.20;99.90
26745;DHT22;14342;50.960;13.880;2023-12-20T02:52:51;6.10;99.90
26745;DHT22;14342;50.960;13.880;2023-12-20T02:53:53;6.10;99.90
26745;DHT22;14342;50.960;13.880;2023-12-20T02:54:54;6.10;99.90
26745;DHT22;14342;50.960;13.880;2023-12-20T02:55:54;6.20;99.90
26745;DHT22;14342;50.960;13.880;2023-12-20T02:56:56;6.10;99.90
26745;DHT22;14342;50.960;13.880;2023-12-20T02:57:56;6.00;99.90
26745;DHT22;14342;50.960;13.880;2023-12-20T02:58:58;6.10;99.90
26745;DHT22;14342;50.960;13.880;2023-12-20T02:59:58;6.10;99.90
26745;DHT22;14342;50.960;13.880;2023-12-20T03:01:00;6.10;99.90
26745;DHT22;14342;50.960;13.880;2023-12-20T03:02:01;6.10;99.90
26745;DHT22;14342;50.960;13.880;2023-12-20T03:03:01;6.10;99.90
26745;DHT22;14342;50.960;13.880;2023-12-20T03:04:03;6.10;99.90
26745;DHT22;14342;50.960;13.880;2023-12-20T03:05:04;6.20;99.90
26745;DHT22;14342;50.960;13.880;2023-12-20T03:06:05;6.20;99.90
26745;DHT22;14342;50.960;13.880;2023-12-20T03:07:06;6.10;99.90
26745;DHT22;14342;50.960;13.880;2023-12-20T03:08:09;6.10;99.90
26745;DHT22;14342;50.960;13.880;2023-12-20T03:09:11;6.10;99.90
26745;DHT22;14342;50.960;13.880;2023-12-20T03:10:12;6.10;99.90
26745;DHT22;14342;50.960;13.880;2023-12-20T03:11:13;6.10;99.90
26745;DHT22;14342;50.960;13.880;2023-12-20T03:12:14;6.10;99.90
26745;DHT22;14342;50.960;13.880;2023-12-20T03:13:15;6.10;99.90
26745;DHT22;14342;50.960;13.880;2023-12-20T03:14:17;6.00;99.90
26745;DHT22;14342;50.960;13.880;2023-12-20T03:15:17;6.00;99.90
26745;DHT22;14342;50.960;13.880;2023-12-20T03:16:19;6.00;99.90
26745;DHT22;14342;50.960;13.880;2023-12-20T03:17:19;5.90;99.90
26745;DHT22;14342;50.960;13.880;2023-12-20T03:18:21;5.80;99.90
26745;DHT22;14342;50.960;13.880;2023-12-20T03:19:22;5.90;99.90
26745;DHT22;14342;50.960;13.880;2023-12-20T03:20:23;5.90;99.90
26745;DHT22;14342;50.960;13.880;2023-12-20T03:21:24;5.80;99.90
26745;DHT22;14342;50.960;13.880;2023-12-20T03:22:25;5.90;99.90
26745;DHT22;14342;50.960;13.880;2023-12-20T03:23:27;5.80;99.90
26745;DHT22;14342;50.960;13.880;2023-12-20T03:24:30;5.80;99.90
26745;DHT22;14342;50.960;13.880;2023-12-20T03:25:31;5.80;99.90
26745;DHT22;14342;50.960;13.880;2023-12-20T03:26:32;5.80;99.90
26745;DHT22;14342;50.960;13.880;2023-12-20T03:27:33;5.80;99.90
26745;DHT22;14342;50.960;13.880;2023-12-20T03:28:35;5.80;99.90
26745;DHT22;14342;50.960;13.880;2023-12-20T03:29:36;5.80;99.90
26745;DHT22;14342;50.960;13.880;2023-12-20T03:30:38;5.80;99.90
26745;DHT22;14342;50.960;13.880;2023-12-20T03:31:38;5.80;99.90
26745;DHT22;14342;50.960;13.880;2023-12-20T03:32:40;5.80;99.90
26745;DHT22;14342;50.960;13.880;2023-12-20T03:33:40;5.90;99.90
26745;DHT22;14342;50.960;13.880;2023-12-20T03:34:41;5.80;99.90
26745;DHT22;14342;50.960;13.880;2023-12-20T03:35:42;5.90;99.90
26745;DHT22;14342;50.960;13.880;2023-12-20T03:36:43;5.80;99.90
26745;DHT22;14342;50.960;13.880;2023-12-20T03:37:48;5.80;99.90
26745;DHT22;14342;50.960;13.880;2023-12-20T03:38:50;5.90;99.90
26745;DHT22;14342;50.960;13.880;2023-12-20T03:39:51;5.90;99.90
26745;DHT22;14342;50.960;13.880;2023-12-20T03:40:52;5.80;99.90
26745;DHT22;14342;50.960;13.880;2023-12-20T03:41:53;5.90;99.90
26745;DHT22;14342;50.960;13.880;2023-12-20T03:42:54;6.00;99.90
26745;DHT22;14342;50.960;13.880;2023-12-20T03:43:54;5.90;99.90
26745;DHT22;14342;50.960;13.880;2023-12-20T03:44:56;5.90;99.90
26745;DHT22;14342;50.960;13.880;2023-12-20T03:45:56;6.00;99.90
26745;DHT22;14342;50.960;13.880;2023-12-20T03:46:59;6.00;99.90
26745;DHT22;14342;50.960;13.880;2023-12-20T03:47:59;6.00;99.90
26745;DHT22;14342;50.960;13.880;2023-12-20T03:49:01;6.00;99.90
26745;DHT22;14342;50.960;13.880;2023-12-20T03:50:01;6.00;99.90
26745;DHT22;14342;50.960;13.880;2023-12-20T03:51:03;6.00;99.90
26745;DHT22;14342;50.960;13.880;2023-12-20T03:52:04;5.90;99.90
26745;DHT22;14342;50.960;13.880;2023-12-20T03:53:04;6.00;99.90
26745;DHT22;14342;50.960;13.880;2023-12-20T03:54:07;6.00;99.90
26745;DHT22;14342;50.960;13.880;2023-12-20T03:55:08;6.00;99.90
26745;DHT22;14342;50.960;13.880;2023-12-20T03:56:10;5.90;99.90
26745;DHT22;14342;50.960;13.880;2023-12-20T03:57:10;6.00;99.90
26745;DHT22;14342;50.960;13.880;2023-12-20T03:58:11;6.10;99.90
26745;DHT22;14342;50.960;13.880;2023-12-20T03:59:12;5.90;99.90
26745;DHT22;14342;50.960;13.880;2023-12-20T04:00:13;5.80;99.90
26745;DHT22;14342;50.960;13.880;2023-12-20T04:01:15;5.80;99.90
26745;DHT22;14342;50.960;13.880;2023-12-20T04:02:16;5.80;99.90
26745;DHT22;14342;50.960;13.880;2023-12-20T04:03:18;5.90;99.90
26745;DHT22;14342;50.960;13.880;2023-12-20T04:04:18;5.90;99.90
26745;DHT22;14342;50.960;13.880;2023-12-20T04:05:20;5.90;99.90
26745;DHT22;14342;50.960;13.880;2023-12-20T04:06:21;5.60;99.90
26745;DHT22;14342;50.960;13.880;2023-12-20T04:07:22;5.90;99.90
26745;DHT22;14342;50.960;13.880;2023-12-20T04:08:23;5.80;99.90
26745;DHT22;14342;50.960;13.880;2023-12-20T04:09:25;5.80;99.90
26745;DHT22;14342;50.960;13.880;2023-12-20T04:10:27;5.80;99.90
26745;DHT22;14342;50.960;13.880;2023-12-20T04:11:27;5.80;99.90
26745;DHT22;14342;50.960;13.880;2023-12-20T04:12:29;5.70;99.90
26745;DHT22;14342;50.960;13.880;2023-12-20T04:13:29;5.60;99.90
26745;DHT22;14342;50.960;13.880;2023-12-20T04:14:30;5.60;99.90
26745;DHT22;14342;50.960;13.880;2023-12-20T04:15:32;5.70;99.90
26745;DHT22;14342;50.960;13.880;2023-12-20T04:16:32;5.60;99.90
26745;DHT22;14342;50.960;13.880;2023-12-20T04:17:33;5.60;99.90
26745;DHT22;14342;50.960;13.880;2023-12-20T04:18:34;5.50;99.90
26745;DHT22;14342;50.960;13.880;2023-12-20T04:19:35;5.40;99.90
26745;DHT22;14342;50.960;13.880;2023-12-20T04:20:36;5.40;99.90
26745;DHT22;14342;50.960;13.880;2023-12-20T04:21:37;5.30;99.90
26745;DHT22;14342;50.960;13.880;2023-12-20T04:22:38;5.40;99.90
26745;DHT22;14342;50.960;13.880;2023-12-20T04:23:39;5.40;99.90
26745;DHT22;14342;50.960;13.880;2023-12-20T04:24:41;5.30;99.90
26745;DHT22;14342;50.960;13.880;2023-12-20T04:25:43;5.30;99.90
26745;DHT22;14342;50.960;13.880;2023-12-20T04:26:43;5.30;99.90
26745;DHT22;14342;50.960;13.880;2023-12-20T04:27:45;5.30;99.90
26745;DHT22;14342;50.960;13.880;2023-12-20T04:28:46;5.20;99.90
26745;DHT22;14342;50.960;13.880;2023-12-20T04:29:46;5.20;99.90
26745;DHT22;14342;50.960;13.880;2023-12-20T04:30:48;5.20;99.90
26745;DHT22;14342;50.960;13.880;2023-12-20T04:31:49;5.20;99.90
26745;DHT22;14342;50.960;13.880;2023-12-20T04:32:51;5.30;99.90
26745;DHT22;14342;50.960;13.880;2023-12-20T04:33:52;5.30;99.90
26745;DHT22;14342;50.960;13.880;2023-12-20T04:34:52;5.30;99.90
26745;DHT22;14342;50.960;13.880;2023-12-20T04:35:54;5.20;99.90
26745;DHT22;14342;50.960;13.880;2023-12-20T04:36:54;5.20;99.90
26745;DHT22;14342;50.960;13.880;2023-12-20T04:37:56;5.20;99.90
26745;DHT22;14342;50.960;13.880;2023-12-20T04:38:57;5.30;99.90
26745;DHT22;14342;50.960;13.880;2023-12-20T04:40:01;5.20;99.90
26745;DHT22;14342;50.960;13.880;2023-12-20T04:41:02;5.30;99.90
26745;DHT22;14342;50.960;13.880;2023-12-20T04:42:04;5.30;99.90
26745;DHT22;14342;50.960;13.880;2023-12-20T04:43:04;5.30;99.90
26745;DHT22;14342;50.960;13.880;2023-12-20T04:44:05;5.30;99.90
26745;DHT22;14342;50.960;13.880;2023-12-20T04:45:07;5.40;99.90
26745;DHT22;14342;50.960;13.880;2023-12-20T04:46:08;5.40;99.90
26745;DHT22;14342;50.960;13.880;2023-12-20T04:47:10;5.50;99.90
26745;DHT22;14342;50.960;13.880;2023-12-20T04:48:10;5.50;99.90
26745;DHT22;14342;50.960;13.880;2023-12-20T04:49:12;5.50;99.90
26745;DHT22;14342;50.960;13.880;2023-12-20T04:50:13;5.40;99.90
26745;DHT22;14342;50.960;13.880;2023-12-20T04:51:15;5.40;99.90
26745;DHT22;14342;50.960;13.880;2023-12-20T04:52:15;5.30;99.90
26745;DHT22;14342;50.960;13.880;2023-12-20T04:53:16;5.30;99.90
26745;DHT22;14342;50.960;13.880;2023-12-20T04:54:18;5.40;99.90
26745;DHT22;14342;50.960;13.880;2023-12-20T04:55:20;5.40;99.90
26745;DHT22;14342;50.960;13.880;2023-12-20T04:56:21;5.40;99.90
26745;DHT22;14342;50.960;13.880;2023-12-20T04:57:22;5.50;99.90
26745;DHT22;14342;50.960;13.880;2023-12-20T04:58:23;5.50;99.90
26745;DHT22;14342;50.960;13.880;2023-12-20T04:59:24;5.50;99.90
26745;DHT22;14342;50.960;13.880;2023-12-20T05:00:25;5.50;99.90
26745;DHT22;14342;50.960;13.880;2023-12-20T05:01:26;5.50;99.90
26745;DHT22;14342;50.960;13.880;2023-12-20T05:02:27;5.50;99.90
26745;DHT22;14342;50.960;13.880;2023-12-20T05:03:28;5.40;99.90
26745;DHT22;14342;50.960;13.880;2023-12-20T05:04:29;5.30;99.90
26745;DHT22;14342;50.960;13.880;2023-12-20T05:05:30;5.30;99.90
26745;DHT22;14342;50.960;13.880;2023-12-20T05:06:32;5.40;99.90
26745;DHT22;14342;50.960;13.880;2023-12-20T05:07:34;5.40;99.90
26745;DHT22;14342;50.960;13.880;2023-12-20T05:08:35;5.30;99.90
26745;DHT22;14342;50.960;13.880;2023-12-20T05:09:36;5.40;99.90
26745;DHT22;14342;50.960;13.880;2023-12-20T05:10:38;5.30;99.90
26745;DHT22;14342;50.960;13.880;2023-12-20T05:11:40;5.30;99.90
26745;DHT22;14342;50.960;13.880;2023-12-20T05:12:41;5.30;99.90
26745;DHT22;14342;50.960;13.880;2023-12-20T05:13:43;5.30;99.90
26745;DHT22;14342;50.960;13.880;2023-12-20T05:14:43;5.30;99.90
26745;DHT22;14342;50.960;13.880;2023-12-20T05:15:44;5.30;99.90
26745;DHT22;14342;50.960;13.880;2023-12-20T05:16:45;5.30;99.90
26745;DHT22;14342;50.960;13.880;2023-12-20T05:17:46;5.30;99.90
26745;DHT22;14342;50.960;13.880;2023-12-20T05:18:48;5.30;99.90
26745;DHT22;14342;50.960;13.880;2023-12-20T05:19:49;5.40;99.90
26745;DHT22;14342;50.960;13.880;2023-12-20T05:20:50;5.50;99.90
26745;DHT22;14342;50.960;13.880;2023-12-20T05:21:51;5.50;99.90
26745;DHT22;14342;50.960;13.880;2023-12-20T05:22:53;5.40;99.90
26745;DHT22;14342;50.960;13.880;2023-12-20T05:23:53;5.40;99.90
26745;DHT22;14342;50.960;13.880;2023-12-20T05:24:55;5.40;99.90
26745;DHT22;14342;50.960;13.880;2023-12-20T05:25:57;5.50;99.90
26745;DHT22;14342;50.960;13.880;2023-12-20T05:26:59;5.40;99.90
26745;DHT22;14342;50.960;13.880;2023-12-20T05:27:59;5.50;99.90
26745;DHT22;14342;50.960;13.880;2023-12-20T05:29:01;5.40;99.90
26745;DHT22;14342;50.960;13.880;2023-12-20T05:30:02;5.40;99.90
26745;DHT22;14342;50.960;13.880;2023-12-20T05:31:04;5.40;99.90
26745;DHT22;14342;50.960;13.880;2023-12-20T05:32:05;5.40;99.90
26745;DHT22;14342;50.960;13.880;2023-12-20T05:33:07;5.40;99.90
26745;DHT22;14342;50.960;13.880;2023-12-20T05:34:07;5.40;99.90
26745;DHT22;14342;50.960;13.880;2023-12-20T05:35:09;5.40;99.90
26745;DHT22;14342;50.960;13.880;2023-12-20T05:36:10;5.50;99.90
26745;DHT22;14342;50.960;13.880;2023-12-20T05:37:13;5.50;99.90
26745;DHT22;14342;50.960;13.880;2023-12-20T05:38:14;5.40;99.90
26745;DHT22;14342;50.960;13.880;2023-12-20T05:39:16;5.40;99.90
26745;DHT22;14342;50.960;13.880;2023-12-20T05:40:16;5.40;99.90
26745;DHT22;14342;50.960;13.880;2023-12-20T05:41:19;5.50;99.90
26745;DHT22;14342;50.960;13.880;2023-12-20T05:42:21;5.50;99.90
26745;DHT22;14342;50.960;13.880;2023-12-20T05:43:23;5.60;99.90
26745;DHT22;14342;50.960;13.880;2023-12-20T05:44:24;5.60;99.90
26745;DHT22;14342;50.960;13.880;2023-12-20T05:45:25;5.50;99.90
26745;DHT22;14342;50.960;13.880;2023-12-20T05:46:26;5.50;99.90
26745;DHT22;14342;50.960;13.880;2023-12-20T05:47:27;5.60;99.90
26745;DHT22;14342;50.960;13.880;2023-12-20T05:48:28;5.70;99.90
26745;DHT22;14342;50.960;13.880;2023-12-20T05:49:30;5.80;99.90
26745;DHT22;14342;50.960;13.880;2023-12-20T05:50:30;5.80;99.90
26745;DHT22;14342;50.960;13.880;2023-12-20T05:51:32;5.70;99.90
26745;DHT22;14342;50.960;13.880;2023-12-20T05:52:32;5.70;99.90
26745;DHT22;14342;50.960;13.880;2023-12-20T05:53:34;5.70;99.90
26745;DHT22;14342;50.960;13.880;2023-12-20T05:54:35;5.70;99.90
26745;DHT22;14342;50.960;13.880;2023-12-20T05:55:36;5.70;99.90
26745;DHT22;14342;50.960;13.880;2023-12-20T05:56:38;5.70;99.90
26745;DHT22;14342;50.960;13.880;2023-12-20T05:57:40;5.60;99.90
26745;DHT22;14342;50.960;13.880;2023-12-20T05:58:40;5.70;99.90
26745;DHT22;14342;50.960;13.880;2023-12-20T05:59:42;5.70;99.90
26745;DHT22;14342;50.960;13.880;2023-12-20T06:00:43;5.60;99.90
26745;DHT22;14342;50.960;13.880;2023-12-20T06:01:44;5.70;99.90
26745;DHT22;14342;50.960;13.880;2023-12-20T06:02:45;5.70;99.90
26745;DHT22;14342;50.960;13.880;2023-12-20T06:03:46;5.70;99.90
26745;DHT22;14342;50.960;13.880;2023-12-20T06:04:47;5.80;99.90
26745;DHT22;14342;50.960;13.880;2023-12-20T06:05:48;5.80;99.90
26745;DHT22;14342;50.960;13.880;2023-12-20T06:06:49;5.70;99.90
26745;DHT22;14342;50.960;13.880;2023-12-20T06:07:51;5.70;99.90
26745;DHT22;14342;50.960;13.880;2023-12-20T06:08:51;5.70;99.90
26745;DHT22;14342;50.960;13.880;2023-12-20T06:09:53;5.70;99.90
26745;DHT22;14342;50.960;13.880;2023-12-20T06:10:53;5.70;99.90
26745;DHT22;14342;50.960;13.880;2023-12-20T06:11:56;5.70;99.90
26745;DHT22;14342;50.960;13.880;2023-12-20T06:12:57;5.80;99.90
26745;DHT22;14342;50.960;13.880;2023-12-20T06:13:59;5.80;99.90
26745;DHT22;14342;50.960;13.880;2023-12-20T06:14:59;5.80;99.90
26745;DHT22;14342;50.960;13.880;2023-12-20T06:16:01;5.80;99.90
26745;DHT22;14342;50.960;13.880;2023-12-20T06:17:02;5.90;99.90
26745;DHT22;14342;50.960;13.880;2023-12-20T06:18:04;5.80;99.90
26745;DHT22;14342;50.960;13.880;2023-12-20T06:19:04;5.70;99.90
26745;DHT22;14342;50.960;13.880;2023-12-20T06:20:07;5.70;99.90
26745;DHT22;14342;50.960;13.880;2023-12-20T06:21:08;5.80;99.90
26745;DHT22;14342;50.960;13.880;2023-12-20T06:22:13;5.90;99.90
26745;DHT22;14342;50.960;13.880;2023-12-20T06:23:13;5.90;99.90
26745;DHT22;14342;50.960;13.880;2023-12-20T06:24:15;5.90;99.90
26745;DHT22;14342;50.960;13.880;2023-12-20T06:25:16;5.80;99.90
26745;DHT22;14342;50.960;13.880;2023-12-20T06:26:17;5.70;99.90
26745;DHT22;14342;50.960;13.880;2023-12-20T06:27:19;5.60;99.90